sensor_id;sensor_type;location;lat;lon;timestamp;P1;durP1;ratioP1;P2;durP2;ratioP2
17441;SDS011;8838;50.144;8.176;2022-12-20T00:01:07;74.17;;;36.70;;
17441;SDS011;8838;50.144;8.176;2022-12-20T00:03:36;73.83;;;36.53;;
17441;SDS011;8838;50.144;8.176;2022-12-20T00:06:03;74.60;;;36.57;;
17441;SDS011;8838;50.144;8.176;2022-12-20T00:08:31;73.40;;;35.67;;
17441;SDS011;8838;50.144;8.176;2022-12-20T00:10:59;77.80;;;37.10;;
17441;SDS011;8838;50.144;8.176;2022-12-20T00:13:26;77.07;;;36.83;;
17441;SDS011;8838;50.144;8.176;2022-12-20T00:16:02;83.13;;;38.20;;
17441;SDS011;8838;50.144;8.176;2022-12-20T00:18:35;80.80;;;38.73;;
17441;SDS011;8838;50.144;8.176;2022-12-20T00:21:05;79.30;;;38.90;;
17441;SDS011;8838;50.144;8.176;2022-12-20T00:23:33;81.10;;;39.27;;
17441;SDS011;8838;50.144;8.176;2022-12-20T00:26:01;79.63;;;38.03;;
17441;SDS011;8838;50.144;8.176;2022-12-20T00:28:29;86.07;;;36.67;;
17441;SDS011;8838;50.144;8.176;2022-12-20T00:30:56;81.37;;;38.67;;
17441;SDS011;8838;50.144;8.176;2022-12-20T00:33:25;77.80;;;35.87;;
17441;SDS011;8838;50.144;8.176;2022-12-20T00:35:53;77.03;;;36.47;;
17441;SDS011;8838;50.144;8.176;2022-12-20T00:38:20;75.87;;;37.27;;
17441;SDS011;8838;50.144;8.176;2022-12-20T00:40:47;72.20;;;37.17;;
17441;SDS011;8838;50.144;8.176;2022-12-20T00:43:23;69.27;;;36.10;;
17441;SDS011;8838;50.144;8.176;2022-12-20T00:45:50;67.40;;;35.57;;
17441;SDS011;8838;50.144;8.176;2022-12-20T00:48:17;72.43;;;35.37;;
17441;SDS011;8838;50.144;8.176;2022-12-20T00:50:45;67.77;;;36.03;;
17441;SDS011;8838;50.144;8.176;2022-12-20T00:53:12;70.13;;;37.13;;
17441;SDS011;8838;50.144;8.176;2022-12-20T00:55:40;71.50;;;36.07;;
17441;SDS011;8838;50.144;8.176;2022-12-20T00:58:07;73.97;;;35.90;;
17441;SDS011;8838;50.144;8.176;2022-12-20T01:00:34;72.73;;;36.83;;
17441;SDS011;8838;50.144;8.176;2022-12-20T01:03:01;70.00;;;35.80;;
17441;SDS011;8838;50.144;8.176;2022-12-20T01:05:28;70.07;;;35.40;;
17441;SDS011;8838;50.144;8.176;2022-12-20T01:07:56;73.47;;;36.33;;
17441;SDS011;8838;50.144;8.176;2022-12-20T01:10:24;65.67;;;34.47;;
17441;SDS011;8838;50.144;8.176;2022-12-20T01:12:51;63.27;;;33.00;;
17441;SDS011;8838;50.144;8.176;2022-12-20T01:15:19;58.87;;;31.47;;
17441;SDS011;8838;50.144;8.176;2022-12-20T01:17:46;66.47;;;33.77;;
17441;SDS011;8838;50.144;8.176;2022-12-20T01:20:13;66.90;;;35.43;;
17441;SDS011;8838;50.144;8.176;2022-12-20T01:22:40;68.13;;;35.93;;
17441;SDS011;8838;50.144;8.176;2022-12-20T01:25:09;66.83;;;34.57;;
17441;SDS011;8838;50.144;8.176;2022-12-20T01:27:36;68.73;;;35.40;;
17441;SDS011;8838;50.144;8.176;2022-12-20T01:30:03;65.53;;;33.97;;
17441;SDS011;8838;50.144;8.176;2022-12-20T01:32:30;68.27;;;35.63;;
17441;SDS011;8838;50.144;8.176;2022-12-20T01:34:57;65.73;;;33.60;;
17441;SDS011;8838;50.144;8.176;2022-12-20T01:37:23;59.77;;;33.20;;
17441;SDS011;8838;50.144;8.176;2022-12-20T01:39:50;65.10;;;33.80;;
17441;SDS011;8838;50.144;8.176;2022-12-20T01:42:19;64.10;;;34.23;;
17441;SDS011;8838;50.144;8.176;2022-12-20T01:44:56;67.73;;;34.60;;
17441;SDS011;8838;50.144;8.176;2022-12-20T01:47:24;66.43;;;34.37;;
17441;SDS011;8838;50.144;8.176;2022-12-20T01:49:53;63.43;;;35.13;;
17441;SDS011;8838;50.144;8.176;2022-12-20T01:52:24;66.97;;;35.43;;
17441;SDS011;8838;50.144;8.176;2022-12-20T01:54:59;65.77;;;36.27;;
17441;SDS011;8838;50.144;8.176;2022-12-20T01:57:32;71.07;;;35.77;;
17441;SDS011;8838;50.144;8.176;2022-12-20T02:00:03;70.00;;;36.47;;
17441;SDS011;8838;50.144;8.176;2022-12-20T02:02:32;70.33;;;36.40;;
17441;SDS011;8838;50.144;8.176;2022-12-20T02:04:59;70.60;;;36.00;;
17441;SDS011;8838;50.144;8.176;2022-12-20T02:07:27;71.33;;;36.10;;
17441;SDS011;8838;50.144;8.176;2022-12-20T02:09:56;72.47;;;34.77;;
17441;SDS011;8838;50.144;8.176;2022-12-20T02:12:27;71.30;;;35.97;;
17441;SDS011;8838;50.144;8.176;2022-12-20T02:15:01;68.57;;;35.13;;
17441;SDS011;8838;50.144;8.176;2022-12-20T02:17:39;67.03;;;35.93;;
17441;SDS011;8838;50.144;8.176;2022-12-20T02:23:15;65.93;;;33.97;;
17441;SDS011;8838;50.144;8.176;2022-12-20T02:25:59;68.77;;;34.00;;
17441;SDS011;8838;50.144;8.176;2022-12-20T02:28:44;70.37;;;36.23;;
17441;SDS011;8838;50.144;8.176;2022-12-20T02:31:36;68.67;;;35.37;;
17441;SDS011;8838;50.144;8.176;2022-12-20T02:34:05;66.03;;;34.50;;
17441;SDS011;8838;50.144;8.176;2022-12-20T02:36:33;71.30;;;34.43;;
17441;SDS011;8838;50.144;8.176;2022-12-20T02:39:00;73.10;;;37.53;;
17441;SDS011;8838;50.144;8.176;2022-12-20T02:41:29;72.63;;;36.40;;
17441;SDS011;8838;50.144;8.176;2022-12-20T02:44:02;69.00;;;35.93;;
17441;SDS011;8838;50.144;8.176;2022-12-20T02:46:51;68.30;;;36.53;;
17441;SDS011;8838;50.144;8.176;2022-12-20T02:49:21;69.70;;;35.43;;
17441;SDS011;8838;50.144;8.176;2022-12-20T02:51:52;64.50;;;36.33;;
17441;SDS011;8838;50.144;8.176;2022-12-20T02:54:21;73.37;;;35.07;;
17441;SDS011;8838;50.144;8.176;2022-12-20T02:56:49;66.43;;;34.90;;
17441;SDS011;8838;50.144;8.176;2022-12-20T02:59:22;62.60;;;33.57;;
17441;SDS011;8838;50.144;8.176;2022-12-20T03:01:53;66.10;;;34.20;;
17441;SDS011;8838;50.144;8.176;2022-12-20T03:04:22;64.10;;;35.10;;
17441;SDS011;8838;50.144;8.176;2022-12-20T03:06:56;66.20;;;35.00;;
17441;SDS011;8838;50.144;8.176;2022-12-20T03:09:24;65.30;;;34.90;;
17441;SDS011;8838;50.144;8.176;2022-12-20T03:11:51;63.87;;;33.17;;
17441;SDS011;8838;50.144;8.176;2022-12-20T03:14:19;62.47;;;32.93;;
17441;SDS011;8838;50.144;8.176;2022-12-20T03:16:46;63.03;;;33.30;;
17441;SDS011;8838;50.144;8.176;2022-12-20T03:19:15;61.23;;;32.73;;
17441;SDS011;8838;50.144;8.176;2022-12-20T03:21:42;57.27;;;32.20;;
17441;SDS011;8838;50.144;8.176;2022-12-20T03:24:09;62.40;;;33.87;;
17441;SDS011;8838;50.144;8.176;2022-12-20T03:26:37;66.00;;;32.93;;
17441;SDS011;8838;50.144;8.176;2022-12-20T03:29:04;67.37;;;34.90;;
17441;SDS011;8838;50.144;8.176;2022-12-20T03:31:32;63.17;;;33.90;;
17441;SDS011;8838;50.144;8.176;2022-12-20T03:33:59;60.27;;;33.03;;
17441;SDS011;8838;50.144;8.176;2022-12-20T03:36:27;64.97;;;33.20;;
17441;SDS011;8838;50.144;8.176;2022-12-20T03:38:54;60.03;;;32.80;;
17441;SDS011;8838;50.144;8.176;2022-12-20T03:41:21;60.67;;;31.87;;
17441;SDS011;8838;50.144;8.176;2022-12-20T03:43:48;56.83;;;31.93;;
17441;SDS011;8838;50.144;8.176;2022-12-20T03:46:16;55.83;;;31.93;;
17441;SDS011;8838;50.144;8.176;2022-12-20T03:48:43;58.80;;;33.07;;
17441;SDS011;8838;50.144;8.176;2022-12-20T03:51:10;60.63;;;31.70;;
17441;SDS011;8838;50.144;8.176;2022-12-20T03:53:38;60.73;;;31.80;;
17441;SDS011;8838;50.144;8.176;2022-12-20T03:56:05;60.13;;;32.33;;
17441;SDS011;8838;50.144;8.176;2022-12-20T03:58:32;61.77;;;31.93;;
17441;SDS011;8838;50.144;8.176;2022-12-20T04:00:59;57.33;;;31.60;;
17441;SDS011;8838;50.144;8.176;2022-12-20T04:03:25;59.50;;;32.37;;
17441;SDS011;8838;50.144;8.176;2022-12-20T04:05:52;63.47;;;32.60;;
17441;SDS011;8838;50.144;8.176;2022-12-20T04:08:19;58.90;;;31.00;;
17441;SDS011;8838;50.144;8.176;2022-12-20T04:10:47;58.80;;;31.27;;
17441;SDS011;8838;50.144;8.176;2022-12-20T04:13:31;59.43;;;31.37;;
17441;SDS011;8838;50.144;8.176;2022-12-20T04:15:58;59.37;;;31.60;;
17441;SDS011;8838;50.144;8.176;2022-12-20T04:18:25;55.53;;;31.97;;
17441;SDS011;8838;50.144;8.176;2022-12-20T04:20:52;57.70;;;31.10;;
17441;SDS011;8838;50.144;8.176;2022-12-20T04:23:19;57.97;;;32.27;;
17441;SDS011;8838;50.144;8.176;2022-12-20T04:25:47;58.67;;;31.67;;
17441;SDS011;8838;50.144;8.176;2022-12-20T04:28:14;54.33;;;31.13;;
17441;SDS011;8838;50.144;8.176;2022-12-20T04:30:41;57.63;;;31.57;;
17441;SDS011;8838;50.144;8.176;2022-12-20T04:33:08;55.77;;;29.37;;
17441;SDS011;8838;50.144;8.176;2022-12-20T04:35:35;50.83;;;29.10;;
17441;SDS011;8838;50.144;8.176;2022-12-20T04:38:02;56.50;;;29.70;;
17441;SDS011;8838;50.144;8.176;2022-12-20T04:40:29;57.53;;;31.17;;
17441;SDS011;8838;50.144;8.176;2022-12-20T04:42:57;55.90;;;31.37;;
17441;SDS011;8838;50.144;8.176;2022-12-20T04:45:24;55.10;;;30.77;;
17441;SDS011;8838;50.144;8.176;2022-12-20T04:47:51;55.20;;;30.30;;
17441;SDS011;8838;50.144;8.176;2022-12-20T04:50:18;59.93;;;31.60;;
17441;SDS011;8838;50.144;8.176;2022-12-20T04:52:44;57.50;;;31.50;;
17441;SDS011;8838;50.144;8.176;2022-12-20T04:55:37;56.57;;;31.00;;
17441;SDS011;8838;50.144;8.176;2022-12-20T04:58:06;58.03;;;30.53;;
17441;SDS011;8838;50.144;8.176;2022-12-20T05:00:34;53.30;;;29.93;;
17441;SDS011;8838;50.144;8.176;2022-12-20T05:03:01;53.47;;;29.13;;
17441;SDS011;8838;50.144;8.176;2022-12-20T05:05:28;50.53;;;28.83;;
17441;SDS011;8838;50.144;8.176;2022-12-20T05:07:55;52.40;;;29.93;;
17441;SDS011;8838;50.144;8.176;2022-12-20T05:10:22;56.07;;;29.47;;
17441;SDS011;8838;50.144;8.176;2022-12-20T05:12:48;55.07;;;30.43;;
17441;SDS011;8838;50.144;8.176;2022-12-20T05:15:17;54.67;;;30.43;;
17441;SDS011;8838;50.144;8.176;2022-12-20T05:17:44;54.27;;;30.17;;
17441;SDS011;8838;50.144;8.176;2022-12-20T05:20:11;48.87;;;29.23;;
17441;SDS011;8838;50.144;8.176;2022-12-20T05:22:38;53.30;;;30.07;;
17441;SDS011;8838;50.144;8.176;2022-12-20T05:25:23;48.73;;;27.90;;
17441;SDS011;8838;50.144;8.176;2022-12-20T05:28:07;53.23;;;27.90;;
17441;SDS011;8838;50.144;8.176;2022-12-20T05:30:35;50.60;;;28.30;;
17441;SDS011;8838;50.144;8.176;2022-12-20T05:33:02;53.10;;;29.23;;
17441;SDS011;8838;50.144;8.176;2022-12-20T05:35:29;47.17;;;26.97;;
17441;SDS011;8838;50.144;8.176;2022-12-20T05:37:56;48.63;;;27.40;;
17441;SDS011;8838;50.144;8.176;2022-12-20T05:40:22;50.77;;;27.30;;
17441;SDS011;8838;50.144;8.176;2022-12-20T05:42:49;51.63;;;28.17;;
17441;SDS011;8838;50.144;8.176;2022-12-20T05:45:16;51.03;;;29.13;;
17441;SDS011;8838;50.144;8.176;2022-12-20T05:47:44;50.60;;;29.27;;
17441;SDS011;8838;50.144;8.176;2022-12-20T05:50:11;52.30;;;27.87;;
17441;SDS011;8838;50.144;8.176;2022-12-20T05:52:38;50.23;;;28.07;;
17441;SDS011;8838;50.144;8.176;2022-12-20T05:55:05;49.77;;;28.97;;
17441;SDS011;8838;50.144;8.176;2022-12-20T05:57:32;52.03;;;30.30;;
17441;SDS011;8838;50.144;8.176;2022-12-20T05:59:59;51.90;;;28.57;;
17441;SDS011;8838;50.144;8.176;2022-12-20T06:02:26;50.77;;;27.57;;
17441;SDS011;8838;50.144;8.176;2022-12-20T06:04:54;50.60;;;27.57;;
17441;SDS011;8838;50.144;8.176;2022-12-20T06:07:22;56.00;;;29.23;;
17441;SDS011;8838;50.144;8.176;2022-12-20T06:09:49;46.10;;;28.03;;
17441;SDS011;8838;50.144;8.176;2022-12-20T06:12:16;53.37;;;28.47;;
17441;SDS011;8838;50.144;8.176;2022-12-20T06:14:42;47.17;;;27.60;;
17441;SDS011;8838;50.144;8.176;2022-12-20T06:17:09;46.87;;;26.90;;
17441;SDS011;8838;50.144;8.176;2022-12-20T06:19:36;49.60;;;27.60;;
17441;SDS011;8838;50.144;8.176;2022-12-20T06:22:07;51.33;;;26.90;;
17441;SDS011;8838;50.144;8.176;2022-12-20T06:24:34;49.63;;;28.63;;
17441;SDS011;8838;50.144;8.176;2022-12-20T06:27:01;48.30;;;27.50;;
17441;SDS011;8838;50.144;8.176;2022-12-20T06:29:30;53.20;;;28.60;;
17441;SDS011;8838;50.144;8.176;2022-12-20T06:31:57;54.67;;;28.03;;
17441;SDS011;8838;50.144;8.176;2022-12-20T06:34:23;48.13;;;26.60;;
17441;SDS011;8838;50.144;8.176;2022-12-20T06:36:50;48.67;;;27.37;;
17441;SDS011;8838;50.144;8.176;2022-12-20T06:39:18;43.17;;;26.30;;
17441;SDS011;8838;50.144;8.176;2022-12-20T06:41:45;49.57;;;28.07;;
17441;SDS011;8838;50.144;8.176;2022-12-20T06:44:12;54.70;;;29.67;;
17441;SDS011;8838;50.144;8.176;2022-12-20T06:46:39;46.70;;;27.37;;
17441;SDS011;8838;50.144;8.176;2022-12-20T06:49:06;47.23;;;26.97;;
17441;SDS011;8838;50.144;8.176;2022-12-20T06:51:39;45.13;;;26.90;;
17441;SDS011;8838;50.144;8.176;2022-12-20T06:54:06;48.07;;;26.33;;
17441;SDS011;8838;50.144;8.176;2022-12-20T06:56:34;45.67;;;26.27;;
17441;SDS011;8838;50.144;8.176;2022-12-20T06:59:08;48.77;;;27.60;;
17441;SDS011;8838;50.144;8.176;2022-12-20T07:01:37;44.27;;;26.47;;
17441;SDS011;8838;50.144;8.176;2022-12-20T07:04:04;46.80;;;25.40;;
17441;SDS011;8838;50.144;8.176;2022-12-20T07:06:31;43.63;;;25.27;;
17441;SDS011;8838;50.144;8.176;2022-12-20T07:08:58;43.23;;;25.30;;
17441;SDS011;8838;50.144;8.176;2022-12-20T07:11:28;42.40;;;24.40;;
17441;SDS011;8838;50.144;8.176;2022-12-20T07:13:56;44.87;;;25.67;;
17441;SDS011;8838;50.144;8.176;2022-12-20T07:16:27;43.83;;;24.90;;
17441;SDS011;8838;50.144;8.176;2022-12-20T07:18:57;40.17;;;24.23;;
17441;SDS011;8838;50.144;8.176;2022-12-20T07:21:24;40.40;;;24.53;;
17441;SDS011;8838;50.144;8.176;2022-12-20T07:23:56;43.27;;;24.60;;
17441;SDS011;8838;50.144;8.176;2022-12-20T07:26:23;40.77;;;23.83;;
17441;SDS011;8838;50.144;8.176;2022-12-20T07:28:50;41.83;;;24.13;;
17441;SDS011;8838;50.144;8.176;2022-12-20T07:31:21;46.67;;;24.97;;
17441;SDS011;8838;50.144;8.176;2022-12-20T07:33:49;43.00;;;24.60;;
17441;SDS011;8838;50.144;8.176;2022-12-20T07:36:16;41.30;;;24.87;;
17441;SDS011;8838;50.144;8.176;2022-12-20T07:38:43;300.73;;;174.23;;
17441;SDS011;8838;50.144;8.176;2022-12-20T07:41:11;44.07;;;25.40;;
17441;SDS011;8838;50.144;8.176;2022-12-20T07:43:38;43.07;;;25.17;;
17441;SDS011;8838;50.144;8.176;2022-12-20T07:46:07;41.47;;;24.13;;
17441;SDS011;8838;50.144;8.176;2022-12-20T07:48:37;41.40;;;23.07;;
17441;SDS011;8838;50.144;8.176;2022-12-20T07:51:08;44.10;;;24.10;;
17441;SDS011;8838;50.144;8.176;2022-12-20T07:53:39;39.00;;;23.07;;
17441;SDS011;8838;50.144;8.176;2022-12-20T07:56:09;42.23;;;22.73;;
17441;SDS011;8838;50.144;8.176;2022-12-20T07:58:38;37.60;;;22.17;;
17441;SDS011;8838;50.144;8.176;2022-12-20T08:01:06;39.30;;;21.63;;
17441;SDS011;8838;50.144;8.176;2022-12-20T08:03:40;104.50;;;62.17;;
17441;SDS011;8838;50.144;8.176;2022-12-20T08:06:10;39.27;;;23.93;;
17441;SDS011;8838;50.144;8.176;2022-12-20T08:08:39;41.83;;;24.30;;
17441;SDS011;8838;50.144;8.176;2022-12-20T08:11:15;40.63;;;24.17;;
17441;SDS011;8838;50.144;8.176;2022-12-20T08:13:44;41.43;;;23.70;;
17441;SDS011;8838;50.144;8.176;2022-12-20T08:16:13;42.43;;;23.87;;
17441;SDS011;8838;50.144;8.176;2022-12-20T08:18:41;39.30;;;23.80;;
17441;SDS011;8838;50.144;8.176;2022-12-20T08:21:08;40.17;;;24.07;;
17441;SDS011;8838;50.144;8.176;2022-12-20T08:23:37;42.13;;;24.33;;
17441;SDS011;8838;50.144;8.176;2022-12-20T08:26:04;41.23;;;23.90;;
17441;SDS011;8838;50.144;8.176;2022-12-20T08:28:31;41.73;;;23.30;;
17441;SDS011;8838;50.144;8.176;2022-12-20T08:31:03;43.03;;;24.47;;
17441;SDS011;8838;50.144;8.176;2022-12-20T08:33:32;41.97;;;24.00;;
17441;SDS011;8838;50.144;8.176;2022-12-20T08:36:03;41.57;;;22.83;;
17441;SDS011;8838;50.144;8.176;2022-12-20T08:38:31;45.00;;;23.70;;
17441;SDS011;8838;50.144;8.176;2022-12-20T08:41:00;42.13;;;23.63;;
17441;SDS011;8838;50.144;8.176;2022-12-20T08:43:27;39.00;;;22.77;;
17441;SDS011;8838;50.144;8.176;2022-12-20T08:45:54;39.30;;;23.10;;
17441;SDS011;8838;50.144;8.176;2022-12-20T08:48:21;40.00;;;22.10;;
17441;SDS011;8838;50.144;8.176;2022-12-20T08:50:54;44.03;;;23.97;;
17441;SDS011;8838;50.144;8.176;2022-12-20T08:53:27;41.97;;;23.00;;
17441;SDS011;8838;50.144;8.176;2022-12-20T08:56:01;44.17;;;24.13;;
17441;SDS011;8838;50.144;8.176;2022-12-20T08:58:39;40.20;;;24.23;;
17441;SDS011;8838;50.144;8.176;2022-12-20T09:01:08;41.27;;;24.27;;
17441;SDS011;8838;50.144;8.176;2022-12-20T09:03:39;40.57;;;23.93;;
17441;SDS011;8838;50.144;8.176;2022-12-20T09:06:08;40.47;;;24.10;;
17441;SDS011;8838;50.144;8.176;2022-12-20T09:08:37;160.90;;;86.43;;
17441;SDS011;8838;50.144;8.176;2022-12-20T09:11:05;110.13;;;63.27;;
17441;SDS011;8838;50.144;8.176;2022-12-20T09:13:37;39.30;;;23.67;;
17441;SDS011;8838;50.144;8.176;2022-12-20T09:16:05;38.30;;;22.43;;
17441;SDS011;8838;50.144;8.176;2022-12-20T09:18:35;39.63;;;23.43;;
17441;SDS011;8838;50.144;8.176;2022-12-20T09:21:02;43.50;;;23.87;;
17441;SDS011;8838;50.144;8.176;2022-12-20T09:23:31;45.00;;;24.77;;
17441;SDS011;8838;50.144;8.176;2022-12-20T09:26:01;40.37;;;23.47;;
17441;SDS011;8838;50.144;8.176;2022-12-20T09:28:29;74.10;;;40.80;;
17441;SDS011;8838;50.144;8.176;2022-12-20T09:30:57;37.90;;;23.13;;
17441;SDS011;8838;50.144;8.176;2022-12-20T09:33:24;38.07;;;22.33;;
17441;SDS011;8838;50.144;8.176;2022-12-20T09:35:51;38.40;;;22.87;;
17441;SDS011;8838;50.144;8.176;2022-12-20T09:38:18;39.60;;;22.13;;
17441;SDS011;8838;50.144;8.176;2022-12-20T09:40:45;40.07;;;22.17;;
17441;SDS011;8838;50.144;8.176;2022-12-20T09:43:16;36.40;;;21.83;;
17441;SDS011;8838;50.144;8.176;2022-12-20T09:45:45;32.87;;;20.63;;
17441;SDS011;8838;50.144;8.176;2022-12-20T09:48:15;44.80;;;23.40;;
17441;SDS011;8838;50.144;8.176;2022-12-20T09:50:46;36.47;;;22.10;;
17441;SDS011;8838;50.144;8.176;2022-12-20T09:53:23;34.67;;;21.07;;
17441;SDS011;8838;50.144;8.176;2022-12-20T09:56:02;33.40;;;21.83;;
17441;SDS011;8838;50.144;8.176;2022-12-20T09:58:40;34.40;;;21.73;;
17441;SDS011;8838;50.144;8.176;2022-12-20T10:01:23;34.00;;;20.53;;
17441;SDS011;8838;50.144;8.176;2022-12-20T10:03:52;32.17;;;19.13;;
17441;SDS011;8838;50.144;8.176;2022-12-20T10:06:23;34.20;;;20.33;;
17441;SDS011;8838;50.144;8.176;2022-12-20T10:09:01;33.20;;;20.17;;
17441;SDS011;8838;50.144;8.176;2022-12-20T10:11:33;36.70;;;21.37;;
17441;SDS011;8838;50.144;8.176;2022-12-20T10:14:19;30.17;;;19.60;;
17441;SDS011;8838;50.144;8.176;2022-12-20T10:17:09;30.30;;;18.90;;
17441;SDS011;8838;50.144;8.176;2022-12-20T10:22:49;33.33;;;19.80;;
17441;SDS011;8838;50.144;8.176;2022-12-20T10:25:22;33.83;;;19.77;;
17441;SDS011;8838;50.144;8.176;2022-12-20T10:27:51;31.40;;;19.17;;
17441;SDS011;8838;50.144;8.176;2022-12-20T10:30:24;33.03;;;19.20;;
17441;SDS011;8838;50.144;8.176;2022-12-20T10:32:54;35.50;;;19.83;;
17441;SDS011;8838;50.144;8.176;2022-12-20T10:35:25;32.30;;;20.07;;
17441;SDS011;8838;50.144;8.176;2022-12-20T10:37:57;32.50;;;19.70;;
17441;SDS011;8838;50.144;8.176;2022-12-20T10:40:26;30.30;;;18.10;;
17441;SDS011;8838;50.144;8.176;2022-12-20T10:42:55;29.27;;;17.93;;
17441;SDS011;8838;50.144;8.176;2022-12-20T10:45:30;28.93;;;18.17;;
17441;SDS011;8838;50.144;8.176;2022-12-20T10:48:00;29.50;;;18.60;;
17441;SDS011;8838;50.144;8.176;2022-12-20T10:50:28;28.87;;;18.63;;
17441;SDS011;8838;50.144;8.176;2022-12-20T10:53:03;26.17;;;17.23;;
17441;SDS011;8838;50.144;8.176;2022-12-20T10:55:43;32.53;;;17.50;;
17441;SDS011;8838;50.144;8.176;2022-12-20T10:58:12;27.87;;;17.53;;
17441;SDS011;8838;50.144;8.176;2022-12-20T11:00:44;29.37;;;17.33;;
17441;SDS011;8838;50.144;8.176;2022-12-20T11:03:15;25.30;;;16.97;;
17441;SDS011;8838;50.144;8.176;2022-12-20T11:05:54;27.43;;;17.27;;
17441;SDS011;8838;50.144;8.176;2022-12-20T11:08:23;32.83;;;18.23;;
17441;SDS011;8838;50.144;8.176;2022-12-20T11:11:08;29.97;;;17.27;;
17441;SDS011;8838;50.144;8.176;2022-12-20T11:13:38;28.70;;;18.27;;
17441;SDS011;8838;50.144;8.176;2022-12-20T11:16:27;30.30;;;17.13;;
17441;SDS011;8838;50.144;8.176;2022-12-20T11:22:12;30.40;;;18.10;;
17441;SDS011;8838;50.144;8.176;2022-12-20T11:24:56;28.90;;;16.83;;
17441;SDS011;8838;50.144;8.176;2022-12-20T11:27:37;27.13;;;17.07;;
17441;SDS011;8838;50.144;8.176;2022-12-20T11:30:14;25.77;;;16.47;;
17441;SDS011;8838;50.144;8.176;2022-12-20T11:35:47;25.33;;;15.73;;
17441;SDS011;8838;50.144;8.176;2022-12-20T11:38:22;23.93;;;14.83;;
17441;SDS011;8838;50.144;8.176;2022-12-20T11:41:03;21.63;;;13.67;;
17441;SDS011;8838;50.144;8.176;2022-12-20T11:43:47;22.73;;;13.90;;
17441;SDS011;8838;50.144;8.176;2022-12-20T11:46:29;23.13;;;15.40;;
17441;SDS011;8838;50.144;8.176;2022-12-20T11:49:17;30.13;;;17.03;;
17441;SDS011;8838;50.144;8.176;2022-12-20T11:51:57;22.87;;;14.17;;
17441;SDS011;8838;50.144;8.176;2022-12-20T11:54:31;19.97;;;12.03;;
17441;SDS011;8838;50.144;8.176;2022-12-20T11:57:09;20.47;;;12.77;;
17441;SDS011;8838;50.144;8.176;2022-12-20T11:59:52;16.80;;;9.10;;
17441;SDS011;8838;50.144;8.176;2022-12-20T12:02:24;15.00;;;9.00;;
17441;SDS011;8838;50.144;8.176;2022-12-20T12:05:00;11.10;;;6.57;;
17441;SDS011;8838;50.144;8.176;2022-12-20T12:07:29;8.30;;;4.53;;
17441;SDS011;8838;50.144;8.176;2022-12-20T12:09:59;7.23;;;4.60;;
17441;SDS011;8838;50.144;8.176;2022-12-20T12:12:39;7.83;;;4.57;;
17441;SDS011;8838;50.144;8.176;2022-12-20T12:15:15;6.47;;;3.67;;
17441;SDS011;8838;50.144;8.176;2022-12-20T12:17:49;6.67;;;3.40;;
17441;SDS011;8838;50.144;8.176;2022-12-20T12:20:27;9.40;;;3.40;;
17441;SDS011;8838;50.144;8.176;2022-12-20T12:23:04;9.10;;;3.00;;
17441;SDS011;8838;50.144;8.176;2022-12-20T12:25:37;7.50;;;3.50;;
17441;SDS011;8838;50.144;8.176;2022-12-20T12:28:04;5.13;;;2.80;;
17441;SDS011;8838;50.144;8.176;2022-12-20T12:30:34;7.63;;;3.00;;
17441;SDS011;8838;50.144;8.176;2022-12-20T12:33:05;9.77;;;2.70;;
17441;SDS011;8838;50.144;8.176;2022-12-20T12:36:09;5.07;;;2.90;;
17441;SDS011;8838;50.144;8.176;2022-12-20T12:39:02;5.97;;;2.80;;
17441;SDS011;8838;50.144;8.176;2022-12-20T12:41:59;8.40;;;3.40;;
17441;SDS011;8838;50.144;8.176;2022-12-20T12:44:41;10.60;;;5.40;;
17441;SDS011;8838;50.144;8.176;2022-12-20T12:47:12;8.53;;;6.10;;
17441;SDS011;8838;50.144;8.176;2022-12-20T12:49:46;10.93;;;8.10;;
17441;SDS011;8838;50.144;8.176;2022-12-20T12:52:28;13.53;;;7.73;;
17441;SDS011;8838;50.144;8.176;2022-12-20T12:58:13;11.50;;;7.60;;
17441;SDS011;8838;50.144;8.176;2022-12-20T13:00:57;15.23;;;8.57;;
17441;SDS011;8838;50.144;8.176;2022-12-20T13:03:36;19.00;;;9.70;;
17441;SDS011;8838;50.144;8.176;2022-12-20T13:09:34;16.27;;;9.13;;
17441;SDS011;8838;50.144;8.176;2022-12-20T13:18:19;10.63;;;7.70;;
17441;SDS011;8838;50.144;8.176;2022-12-20T13:32:52;11.90;;;7.07;;
17441;SDS011;8838;50.144;8.176;2022-12-20T13:35:27;6.00;;;4.17;;
17441;SDS011;8838;50.144;8.176;2022-12-20T13:41:10;7.47;;;4.27;;
17441;SDS011;8838;50.144;8.176;2022-12-20T13:43:46;6.30;;;3.40;;
17441;SDS011;8838;50.144;8.176;2022-12-20T13:46:17;15.03;;;10.73;;
17441;SDS011;8838;50.144;8.176;2022-12-20T13:48:49;37.97;;;25.13;;
17441;SDS011;8838;50.144;8.176;2022-12-20T13:51:18;4.57;;;2.80;;
17441;SDS011;8838;50.144;8.176;2022-12-20T13:53:50;6.23;;;2.40;;
17441;SDS011;8838;50.144;8.176;2022-12-20T13:56:20;4.03;;;2.77;;
17441;SDS011;8838;50.144;8.176;2022-12-20T13:59:04;7.07;;;3.03;;
17441;SDS011;8838;50.144;8.176;2022-12-20T14:01:33;6.57;;;2.60;;
17441;SDS011;8838;50.144;8.176;2022-12-20T14:04:02;6.88;;;3.03;;
17441;SDS011;8838;50.144;8.176;2022-12-20T14:06:31;4.23;;;3.07;;
17441;SDS011;8838;50.144;8.176;2022-12-20T14:08:58;6.90;;;3.50;;
17441;SDS011;8838;50.144;8.176;2022-12-20T14:11:26;8.23;;;3.60;;
17441;SDS011;8838;50.144;8.176;2022-12-20T14:13:53;7.80;;;4.40;;
17441;SDS011;8838;50.144;8.176;2022-12-20T14:16:25;7.57;;;4.57;;
17441;SDS011;8838;50.144;8.176;2022-12-20T14:19:00;8.53;;;5.63;;
17441;SDS011;8838;50.144;8.176;2022-12-20T14:21:28;11.27;;;5.67;;
17441;SDS011;8838;50.144;8.176;2022-12-20T14:23:55;9.17;;;5.17;;
17441;SDS011;8838;50.144;8.176;2022-12-20T14:26:25;9.27;;;5.37;;
17441;SDS011;8838;50.144;8.176;2022-12-20T14:28:54;7.77;;;5.43;;
17441;SDS011;8838;50.144;8.176;2022-12-20T14:31:25;9.10;;;5.73;;
17441;SDS011;8838;50.144;8.176;2022-12-20T14:34:01;10.73;;;5.40;;
17441;SDS011;8838;50.144;8.176;2022-12-20T14:36:30;11.03;;;6.50;;
17441;SDS011;8838;50.144;8.176;2022-12-20T14:38:58;13.67;;;7.10;;
17441;SDS011;8838;50.144;8.176;2022-12-20T14:41:29;13.33;;;7.43;;
17441;SDS011;8838;50.144;8.176;2022-12-20T14:44:00;12.83;;;8.33;;
17441;SDS011;8838;50.144;8.176;2022-12-20T14:46:30;13.20;;;8.10;;
17441;SDS011;8838;50.144;8.176;2022-12-20T14:49:06;13.87;;;8.83;;
17441;SDS011;8838;50.144;8.176;2022-12-20T14:51:43;14.07;;;9.07;;
17441;SDS011;8838;50.144;8.176;2022-12-20T14:54:11;14.43;;;9.33;;
17441;SDS011;8838;50.144;8.176;2022-12-20T14:56:43;15.50;;;9.27;;
17441;SDS011;8838;50.144;8.176;2022-12-20T14:59:12;13.07;;;9.13;;
17441;SDS011;8838;50.144;8.176;2022-12-20T15:01:42;16.30;;;10.23;;
17441;SDS011;8838;50.144;8.176;2022-12-20T15:04:19;15.40;;;9.13;;
17441;SDS011;8838;50.144;8.176;2022-12-20T15:06:48;15.77;;;9.60;;
17441;SDS011;8838;50.144;8.176;2022-12-20T15:09:16;16.20;;;8.80;;
17441;SDS011;8838;50.144;8.176;2022-12-20T15:11:44;15.17;;;9.63;;
17441;SDS011;8838;50.144;8.176;2022-12-20T15:14:18;13.77;;;9.37;;
17441;SDS011;8838;50.144;8.176;2022-12-20T15:16:52;16.00;;;9.73;;
17441;SDS011;8838;50.144;8.176;2022-12-20T15:19:19;15.10;;;9.90;;
17441;SDS011;8838;50.144;8.176;2022-12-20T15:21:46;15.20;;;10.03;;
17441;SDS011;8838;50.144;8.176;2022-12-20T15:24:15;15.73;;;9.37;;
17441;SDS011;8838;50.144;8.176;2022-12-20T15:26:43;14.73;;;9.80;;
17441;SDS011;8838;50.144;8.176;2022-12-20T15:29:11;16.23;;;10.37;;
17441;SDS011;8838;50.144;8.176;2022-12-20T15:31:41;16.63;;;9.83;;
17441;SDS011;8838;50.144;8.176;2022-12-20T15:34:11;15.83;;;10.33;;
17441;SDS011;8838;50.144;8.176;2022-12-20T15:36:40;16.90;;;9.43;;
17441;SDS011;8838;50.144;8.176;2022-12-20T15:39:08;15.27;;;10.37;;